Aviation Digital Data Service (ADDS)

Output produced by METARs form (0726 UTC 24 March 2019)
found at http://www.aviationweather.gov/metar/data/
 
VYMD 240630Z 36008G17KT 7000 NSC 37/12 Q1008
TAF VYMD 240500Z 2406/2506 18007KT 7000 FEW020 
     TEMPO 2406/2412 34010G20KT 7000 FEW020
       
VYYY 240700Z 33009KT 8000 NSC 37/21 Q1007
TAF VYYY 240500Z 2406/2506 13006KT 8000 SCT120 
     TEMPO 2406/2412 16008KT 8000 SCT110